^^
Lockford-Weather Station Historical Data
 
Daily Summary for December 13, 2018 Units:  English    Metric   Both
Daily Weekly Monthly Yearly Custom
  Current: High: Low: Average:
Temperature: 35.4 °F 57 °F 23.4 °F 34.3 °F
Dew Point: 30.2 °F 33.3 °F 22.1 °F 27.6 °F
Humidity: 81% 95% 39% 80%
Wind Speed: 2.2mph 5.4mph 0mph 0.4mph
Wind Gust: 5.8mph 8.3mph - -
WindNW - - SSW
Pressure: 30.14 in 30.32 in 30.14 in -
Precipitation: 0 in      
Historical Graphs
 
 
Tabular Data for December 13, 2018
Time Temperature Dew Point Pressure Wind Wind Speed Wind Gust Humidity Rainfall Rate (Hourly)
00:04 25.7 °F 24.5 °F 30.32 in Calm     95% 0 in
00:08 25.9 °F 24.6 °F 30.31 in Calm     95% 0 in
00:14 25.9 °F 24.6 °F 30.31 in Calm     95% 0 in
00:19 25.9 °F 24.6 °F 30.31 in Calm     95% 0 in
00:24 25.7 °F 24.5 °F 30.31 in Calm     95% 0 in
00:29 25.5 °F 24.3 °F 30.31 in Calm     95% 0 in
00:33 25.5 °F 24.3 °F 30.30 in Calm   3.1 mph 95% 0 in
00:39 25.9 °F 24.6 °F 30.30 in East 0.7 mph 2.3 mph 95% 0 in
00:43 25.9 °F 24.6 °F 30.30 in East 0.7 mph 3.5 mph 95% 0 in
00:49 25.9 °F 24.6 °F 30.29 in Calm     95% 0 in
00:54 25.9 °F 24.6 °F 30.29 in Calm     95% 0 in
00:59 25.9 °F 24.6 °F 30.29 in Calm     95% 0 in
01:04 25.9 °F 24.6 °F 30.30 in Calm     95% 0 in
01:08 26.1 °F 24.8 °F 30.29 in Calm     95% 0 in
01:13 25.9 °F 24.6 °F 30.30 in Calm     95% 0 in
01:18 25.9 °F 24.6 °F 30.29 in Calm     95% 0 in
01:23 25.9 °F 24.6 °F 30.29 in Calm     95% 0 in
01:28 25.3 °F 24.1 °F 30.30 in Calm     95% 0 in
01:33 25 °F 23.8 °F 30.29 in Calm     95% 0 in
01:38 25 °F 23.8 °F 30.30 in Calm     95% 0 in
01:44 25.2 °F 23.9 °F 30.30 in Calm     95% 0 in
01:48 25.2 °F 23.9 °F 30.30 in Calm     95% 0 in
01:54 25.2 °F 23.9 °F 30.30 in Calm     95% 0 in
01:58 25.2 °F 23.9 °F 30.30 in Calm     95% 0 in
02:03 25 °F 23.8 °F 30.30 in Calm     95% 0 in
02:08 24.8 °F 23.6 °F 30.30 in Calm     95% 0 in
02:13 24.8 °F 23.6 °F 30.29 in Calm     95% 0 in
02:19 24.6 °F 23.4 °F 30.30 in Calm     95% 0 in
02:23 24.4 °F 23.2 °F 30.30 in Calm     95% 0 in
02:29 24.3 °F 23 °F 30.30 in Calm     95% 0 in
02:33 24.1 °F 22.9 °F 30.30 in Calm     95% 0 in
02:38 24.3 °F 23 °F 30.30 in Calm     95% 0 in
02:43 24.1 °F 22.9 °F 30.31 in Calm     95% 0 in
02:48 23.9 °F 22.7 °F 30.31 in Calm     95% 0 in
02:54 23.9 °F 22.7 °F 30.30 in Calm     95% 0 in
02:58 23.7 °F 22.5 °F 30.30 in Calm     95% 0 in
03:04 23.7 °F 22.5 °F 30.31 in Calm     95% 0 in
03:08 23.9 °F 22.7 °F 30.31 in Calm     95% 0 in
03:14 23.9 °F 22.7 °F 30.31 in Calm     95% 0 in
03:19 23.7 °F 22.5 °F 30.31 in Calm     95% 0 in
03:24 23.5 °F 22.3 °F 30.31 in Calm     95% 0 in
03:29 23.5 °F 22.3 °F 30.31 in Calm     95% 0 in
03:34 23.5 °F 22.3 °F 30.31 in Calm     95% 0 in
03:39 23.4 °F 22.1 °F 30.31 in Calm     95% 0 in
03:43 23.4 °F 22.1 °F 30.30 in Calm     95% 0 in
03:49 23.5 °F 22.3 °F 30.31 in Calm     95% 0 in
03:54 23.7 °F 22.5 °F 30.31 in Calm     95% 0 in
03:59 24.1 °F 22.9 °F 30.31 in Calm     95% 0 in
04:04 24.3 °F 23 °F 30.32 in Calm     95% 0 in
04:09 24.4 °F 23.2 °F 30.31 in NE 0.7 mph 2.2 mph 95% 0 in
04:14 24.6 °F 23.4 °F 30.31 in Calm   1.2 mph 95% 0 in
04:18 24.6 °F 23.4 °F 30.31 in Calm     95% 0 in
04:23 24.8 °F 23.6 °F 30.31 in Calm     95% 0 in
04:28 25 °F 23.8 °F 30.30 in Calm     95% 0 in
04:33 25.2 °F 23.9 °F 30.30 in Calm     95% 0 in
04:38 25.3 °F 24.1 °F 30.30 in Calm   1.2 mph 95% 0 in
04:43 25.5 °F 24.3 °F 30.30 in Calm     95% 0 in
04:48 25.7 °F 24.5 °F 30.31 in Calm     95% 0 in
04:54 25.9 °F 24.6 °F 30.31 in Calm     95% 0 in
04:58 25.7 °F 24.5 °F 30.31 in Calm     95% 0 in
05:03 25.7 °F 24.5 °F 30.31 in Calm     95% 0 in
05:08 25.9 °F 24.6 °F 30.31 in Calm     95% 0 in
05:13 25.5 °F 24.3 °F 30.31 in Calm     95% 0 in
05:19 25.5 °F 24.3 °F 30.31 in Calm     95% 0 in
05:23 25.5 °F 24.3 °F 30.30 in Calm     95% 0 in
05:29 25.3 °F 24.1 °F 30.30 in Calm     95% 0 in
05:33 25.2 °F 23.9 °F 30.30 in Calm     95% 0 in
05:39 25 °F 23.8 °F 30.31 in Calm     95% 0 in
05:43 25 °F 23.8 °F 30.30 in Calm     95% 0 in
05:48 24.8 °F 23.6 °F 30.30 in Calm     95% 0 in
05:54 24.8 °F 23.6 °F 30.30 in Calm     95% 0 in
05:58 24.8 °F 23.6 °F 30.30 in Calm     95% 0 in
06:04 24.8 °F 23.6 °F 30.30 in Calm     95% 0 in
06:08 24.8 °F 23.6 °F 30.31 in Calm     95% 0 in
06:14 24.6 °F 23.4 °F 30.30 in Calm     95% 0 in
06:19 24.4 °F 23.2 °F 30.30 in Calm     95% 0 in
06:24 24.3 °F 23 °F 30.30 in Calm     95% 0 in
06:29 24.3 °F 23 °F 30.30 in Calm     95% 0 in
06:33 24.3 °F 23 °F 30.30 in Calm     95% 0 in
06:39 24.1 °F 22.9 °F 30.30 in Calm     95% 0 in
06:44 23.9 °F 22.7 °F 30.30 in Calm     95% 0 in
06:49 23.7 °F 22.5 °F 30.30 in Calm     95% 0 in
06:54 23.9 °F 22.7 °F 30.30 in Calm     95% 0 in
06:58 23.9 °F 22.7 °F 30.30 in Calm     95% 0 in
07:04 23.9 °F 22.7 °F 30.30 in Calm     95% 0 in
07:08 23.7 °F 22.5 °F 30.30 in Calm     95% 0 in
07:13 23.4 °F 22.1 °F 30.30 in Calm     95% 0 in
07:18 23.4 °F 22.1 °F 30.30 in Calm     95% 0 in
07:23 23.4 °F 22.1 °F 30.30 in Calm     95% 0 in
07:28 23.5 °F 22.3 °F 30.30 in Calm     95% 0 in
07:33 23.4 °F 22.1 °F 30.30 in Calm     95% 0 in
07:38 23.7 °F 22.5 °F 30.30 in Calm     95% 0 in
07:44 24.1 °F 22.9 °F 30.30 in Calm     95% 0 in
07:48 24.3 °F 23 °F 30.30 in Calm     95% 0 in
07:53 24.3 °F 23 °F 30.30 in Calm     95% 0 in
07:58 24.1 °F 22.9 °F 30.30 in Calm     95% 0 in
08:03 25 °F 23.8 °F 30.30 in Calm     95% 0 in
08:09 26.6 °F 25.4 °F 30.30 in Calm     95% 0 in
08:13 28 °F 26.8 °F 30.30 in Calm     95% 0 in
08:19 28.8 °F 27.5 °F 30.30 in Calm     95% 0 in
08:23 30.2 °F 28.9 °F 30.30 in Calm     95% 0 in
08:29 31.1 °F 29.8 °F 30.31 in Calm     95% 0 in
08:33 31.5 °F 30.2 °F 30.31 in Calm     95% 0 in
08:38 32.4 °F 31.1 °F 30.31 in Calm     95% 0 in
08:44 32 °F 30.7 °F 30.31 in Calm     95% 0 in
08:48 32 °F 30.7 °F 30.31 in Calm   1.6 mph 95% 0 in
08:54 31.8 °F 30.6 °F 30.31 in West 0.7 mph 3.5 mph 95% 0 in
08:58 31.8 °F 30.6 °F 30.30 in West 1.6 mph 3.5 mph 95% 0 in
09:04 32.4 °F 31.1 °F 30.31 in Calm   1.2 mph 95% 0 in
09:08 32.4 °F 30.6 °F 30.31 in West 1.6 mph 3.5 mph 93% 0 in
09:14 32.7 °F 30.4 °F 30.30 in NW 0.7 mph 2.3 mph 91% 0 in
09:19 33.3 °F 30.1 °F 30.30 in Calm   3.5 mph 88% 0 in
09:24 34.5 °F 31.6 °F 30.30 in Calm     89% 0 in
09:29 35.2 °F 31.5 °F 30.30 in Calm     86% 0 in
09:34 35.6 °F 31.5 °F 30.31 in Calm     85% 0 in
09:39 35.6 °F 30.9 °F 30.31 in Calm   3.5 mph 83% 0 in
09:43 35.6 °F 30.6 °F 30.31 in Calm   3.8 mph 82% 0 in
09:49 34.7 °F 30.4 °F 30.31 in Calm     84% 0 in
09:53 35.1 °F 30.4 °F 30.31 in NW 0.7 mph 2.2 mph 83% 0 in
09:58 36 °F 31 °F 30.31 in Calm   2.3 mph 82% 0 in
10:03 36.7 °F 30.8 °F 30.31 in Calm   3.5 mph 79% 0 in
10:08 37.8 °F 31.5 °F 30.31 in Calm     78% 0 in
10:13 37.6 °F 30.7 °F 30.31 in West 0.7 mph 4.6 mph 76% 0 in
10:18 37.8 °F 30.9 °F 30.30 in SW 2.2 mph 4.6 mph 76% 0 in
10:23 37.4 °F 30.8 °F 30.30 in South 0.7 mph 3.8 mph 77% 0 in
10:28 37.9 °F 31.7 °F 30.30 in Calm   1.6 mph 78% 0 in
10:33 38.8 °F 31.6 °F 30.30 in Calm   2.3 mph 75% 0 in
10:38 41 °F 32.7 °F 30.29 in Calm   1.2 mph 72% 0 in
10:43 42.4 °F 33.3 °F 30.29 in Calm     70% 0 in
10:48 43 °F 33.1 °F 30.29 in Calm     68% 0 in
10:54 42.4 °F 32.3 °F 30.28 in Calm     67% 0 in
10:58 42.6 °F 32.4 °F 30.28 in Calm     67% 0 in
11:04 42.3 °F 32.1 °F 30.28 in Calm   4.6 mph 67% 0 in
11:08 42.4 °F 32.6 °F 30.27 in Calm   3.5 mph 68% 0 in
11:14 42.8 °F 31.8 °F 30.27 in South 1.6 mph 3.8 mph 65% 0 in
11:19 41.7 °F 31.6 °F 30.27 in Calm   3.5 mph 67% 0 in
11:23 42.4 °F 31.9 °F 30.27 in SW 2.2 mph 4.6 mph 66% 0 in
11:29 42.6 °F 32.4 °F 30.26 in SW 0.7 mph 4.6 mph 67% 0 in
11:33 42.8 °F 32.6 °F 30.26 in SW 0.7 mph 3.5 mph 67% 0 in
11:39 43 °F 32.8 °F 30.25 in SW 1.6 mph 3.5 mph 67% 0 in
11:43 42.8 °F 32.2 °F 30.25 in South 2.2 mph 4.6 mph 66% 0 in
11:49 42.4 °F 32.3 °F 30.25 in SW 1.6 mph 4.5 mph 67% 0 in
11:54 43.2 °F 32.6 °F 30.25 in SW 2.2 mph 5.4 mph 66% 0 in
11:59 44.2 °F 33.2 °F 30.25 in Calm   2.3 mph 65% 0 in
12:04 46.6 °F 33 °F 30.24 in Calm   3.5 mph 59% 0 in
12:09 47.8 °F 33.3 °F 30.24 in Calm     57% 0 in
12:14 47.1 °F 32.7 °F 30.24 in SW 2.2 mph 4.6 mph 57% 0 in
12:19 46.9 °F 32.9 °F 30.23 in SE 2.2 mph 4.5 mph 58% 0 in
12:23 47.5 °F 32.6 °F 30.23 in SE 0.7 mph 4.5 mph 56% 0 in
12:28 47.3 °F 32.8 °F 30.23 in South 4.5 mph 8.3 mph 57% 0 in
12:33 45.7 °F 31.7 °F 30.23 in SW 3.8 mph 7.6 mph 58% 0 in
12:38 45 °F 31.1 °F 30.23 in SE 5.4 mph 7.6 mph 58% 0 in
12:44 45.5 °F 31.1 °F 30.24 in SW 2.2 mph 5.8 mph 57% 0 in
12:48 45 °F 30.6 °F 30.23 in SE 1.6 mph 3.5 mph 57% 0 in
12:53 44.4 °F 30.6 °F 30.23 in Calm   4.6 mph 58% 0 in
12:58 45.7 °F 30.9 °F 30.23 in South 1.6 mph 5.8 mph 56% 0 in
13:03 46 °F 31.2 °F 30.23 in South 1.6 mph 5.8 mph 56% 0 in
13:09 47.3 °F 31.5 °F 30.22 in Calm   4.6 mph 54% 0 in
13:13 48.7 °F 31.9 °F 30.22 in Calm   5.8 mph 52% 0 in
13:19 48.4 °F 31.5 °F 30.22 in South 1.6 mph 3.8 mph 52% 0 in
13:23 48.2 °F 31.4 °F 30.21 in SW 1.6 mph 3.8 mph 52% 0 in
13:29 48.4 °F 31.1 °F 30.21 in SE 2.2 mph 5.8 mph 51% 0 in
13:33 48.6 °F 31.7 °F 30.21 in South 0.7 mph 3.5 mph 52% 0 in
13:39 48.4 °F 31.1 °F 30.21 in SSE 2.2 mph 5.4 mph 51% 0 in
13:43 48.6 °F 31.2 °F 30.21 in Calm   3.5 mph 51% 0 in
13:48 49.5 °F 31.6 °F 30.21 in SW 3.1 mph 4.5 mph 50% 0 in
13:54 50 °F 31.6 °F 30.20 in SE 2.2 mph 5.4 mph 49% 0 in
13:58 50.2 °F 31.7 °F 30.20 in SW 2.2 mph 3.8 mph 49% 0 in
14:04 50.7 °F 32.2 °F 30.20 in Calm   0.7 mph 49% 0 in
14:09 50.5 °F 31.6 °F 30.20 in NE 1.6 mph 4.6 mph 48% 0 in
14:14 50.4 °F 30.9 °F 30.20 in East 1.6 mph 3.1 mph 47% 0 in
14:19 50 °F 31.6 °F 30.19 in Calm   1.2 mph 49% 0 in
14:24 51.3 °F 30.6 °F 30.19 in SW 1.6 mph 3.5 mph 45% 0 in
14:28 51.1 °F 29.9 °F 30.19 in SW 0.7 mph 3.5 mph 44% 0 in
14:34 50.9 °F 30.3 °F 30.19 in SE 2.2 mph 5.8 mph 45% 0 in
14:38 50.9 °F 30.3 °F 30.19 in Calm   3.5 mph 45% 0 in
14:44 51.1 °F 30.5 °F 30.18 in SE 1.6 mph 3.5 mph 45% 0 in
14:49 51.1 °F 30.5 °F 30.18 in South 0.7 mph 3.5 mph 45% 0 in
14:54 50.5 °F 30.5 °F 30.18 in Calm   2.3 mph 46% 0 in
14:59 50.9 °F 30.3 °F 30.18 in South 3.1 mph 4.5 mph 45% 0 in
15:03 51.1 °F 30.5 °F 30.18 in Calm   3.5 mph 45% 0 in
15:08 52.7 °F 30.8 °F 30.18 in Calm     43% 0 in
15:14 54.5 °F 31.9 °F 30.17 in Calm     42% 0 in
15:18 54.9 °F 31.6 °F 30.17 in Calm     41% 0 in
15:24 56.5 °F 31.8 °F 30.17 in Calm     39% 0 in
15:28 56.7 °F 33.2 °F 30.17 in Calm     41% 0 in
15:34 57 °F 32.3 °F 30.17 in Calm     39% 0 in
15:38 55.8 °F 31.8 °F 30.17 in Calm     40% 0 in
15:44 52 °F 31.3 °F 30.17 in Calm   3.5 mph 45% 0 in
15:48 49.8 °F 31.9 °F 30.17 in Calm   2.3 mph 50% 0 in
15:54 46 °F 31.2 °F 30.17 in West 2.2 mph 3.8 mph 56% 0 in
15:58 44.6 °F 31.1 °F 30.17 in NW 2.2 mph 3.8 mph 59% 0 in
16:04 43.3 °F 31.2 °F 30.17 in SW 0.7 mph 3.5 mph 62% 0 in
16:08 42.8 °F 31.1 °F 30.16 in Calm   2.3 mph 63% 0 in
16:14 42.1 °F 31.2 °F 30.16 in Calm   3.5 mph 65% 0 in
16:19 41.4 °F 31.2 °F 30.16 in Calm     67% 0 in
16:24 40.8 °F 31.4 °F 30.16 in Calm     69% 0 in
16:28 40.3 °F 31.3 °F 30.16 in Calm     70% 0 in
16:34 39.6 °F 31.3 °F 30.16 in Calm     72% 0 in
16:39 39 °F 31.1 °F 30.16 in Calm     73% 0 in
16:44 38.7 °F 31.4 °F 30.16 in Calm     75% 0 in
16:49 38.3 °F 31.1 °F 30.16 in Calm     75% 0 in
16:53 37.8 °F 30.5 °F 30.15 in Calm     75% 0 in
16:59 37.2 °F 30.3 °F 30.15 in Calm     76% 0 in
17:03 37.2 °F 30.7 °F 30.15 in Calm     77% 0 in
17:09 36.9 °F 30.6 °F 30.15 in Calm     78% 0 in
17:13 36.5 °F 30 °F 30.15 in Calm     77% 0 in
17:19 36.1 °F 30.3 °F 30.14 in Calm     79% 0 in
17:23 36.1 °F 30.3 °F 30.14 in Calm     79% 0 in
17:29 35.4 °F 30.2 °F 30.14 in NW 2.2 mph 5.8 mph 81% 0 in
Klamath Falls Weather
Compliments of Weather Underground - 2 mb